sensor_id;sensor_type;location;lat;lon;timestamp;pressure;altitude;pressure_sealevel;temperature;humidity
11223;BME280;5668;52.012;8.724;2023-04-19T00:02:13;101384.09;;;12.33;69.23
11223;BME280;5668;52.012;8.724;2023-04-19T00:04:42;101378.25;;;12.30;68.81
11223;BME280;5668;52.012;8.724;2023-04-19T00:07:10;101374.03;;;12.27;69.45
11223;BME280;5668;52.012;8.724;2023-04-19T00:09:38;101374.13;;;12.26;68.98
11223;BME280;5668;52.012;8.724;2023-04-19T00:12:05;101361.94;;;12.26;68.86
11223;BME280;5668;52.012;8.724;2023-04-19T00:14:33;101361.22;;;12.24;69.05
11223;BME280;5668;52.012;8.724;2023-04-19T00:17:00;101368.38;;;12.21;69.35
11223;BME280;5668;52.012;8.724;2023-04-19T00:19:27;101366.75;;;12.18;69.09
11223;BME280;5668;52.012;8.724;2023-04-19T00:21:56;101363.53;;;12.15;68.67
11223;BME280;5668;52.012;8.724;2023-04-19T00:24:23;101367.06;;;12.14;68.72
11223;BME280;5668;52.012;8.724;2023-04-19T00:26:50;101361.28;;;12.09;69.63
11223;BME280;5668;52.012;8.724;2023-04-19T00:29:17;101358.75;;;12.07;69.84
11223;BME280;5668;52.012;8.724;2023-04-19T00:31:45;101352.88;;;12.03;69.32
11223;BME280;5668;52.012;8.724;2023-04-19T00:34:12;101366.56;;;12.07;69.53
11223;BME280;5668;52.012;8.724;2023-04-19T00:36:39;101360.69;;;12.03;69.65
11223;BME280;5668;52.012;8.724;2023-04-19T00:39:08;101358.28;;;12.00;69.83
11223;BME280;5668;52.012;8.724;2023-04-19T00:41:35;101359.38;;;11.96;70.01
11223;BME280;5668;52.012;8.724;2023-04-19T00:44:02;101353.63;;;11.91;70.28
11223;BME280;5668;52.012;8.724;2023-04-19T00:46:30;101357.13;;;11.90;70.05
11223;BME280;5668;52.012;8.724;2023-04-19T00:48:58;101351.38;;;11.85;70.49
11223;BME280;5668;52.012;8.724;2023-04-19T00:51:25;101345.56;;;11.80;69.92
11223;BME280;5668;52.012;8.724;2023-04-19T00:53:53;101351.91;;;11.76;69.74
11223;BME280;5668;52.012;8.724;2023-04-19T00:56:22;101342.81;;;11.68;69.84
11223;BME280;5668;52.012;8.724;2023-04-19T00:58:50;101353.16;;;11.69;70.26
11223;BME280;5668;52.012;8.724;2023-04-19T01:01:17;101356.88;;;11.65;70.79
11223;BME280;5668;52.012;8.724;2023-04-19T01:03:45;101346.47;;;11.65;70.34
11223;BME280;5668;52.012;8.724;2023-04-19T01:06:13;101351.91;;;11.60;70.20
11223;BME280;5668;52.012;8.724;2023-04-19T01:08:40;101349.59;;;11.56;69.91
11223;BME280;5668;52.012;8.724;2023-04-19T01:11:08;101352.53;;;11.50;69.71
11223;BME280;5668;52.012;8.724;2023-04-19T01:13:36;101350.84;;;11.49;69.01
11223;BME280;5668;52.012;8.724;2023-04-19T01:16:04;101351.94;;;11.45;68.59
11223;BME280;5668;52.012;8.724;2023-04-19T01:18:32;101345.97;;;11.43;68.67
11223;BME280;5668;52.012;8.724;2023-04-19T01:21:02;101343.50;;;11.41;68.20
11223;BME280;5668;52.012;8.724;2023-04-19T01:23:31;101338.53;;;11.37;67.51
11223;BME280;5668;52.012;8.724;2023-04-19T01:25:58;101340.28;;;11.36;68.00
11223;BME280;5668;52.012;8.724;2023-04-19T01:28:26;101344.66;;;11.36;67.61
11223;BME280;5668;52.012;8.724;2023-04-19T01:30:53;101341.03;;;11.38;68.09
11223;BME280;5668;52.012;8.724;2023-04-19T01:33:21;101340.97;;;11.40;67.71
11223;BME280;5668;52.012;8.724;2023-04-19T01:35:48;101347.84;;;11.41;67.63
11223;BME280;5668;52.012;8.724;2023-04-19T01:38:16;101345.31;;;11.39;66.62
11223;BME280;5668;52.012;8.724;2023-04-19T01:40:45;101342.88;;;11.36;65.96
11223;BME280;5668;52.012;8.724;2023-04-19T01:43:13;101343.06;;;11.33;66.21
11223;BME280;5668;52.012;8.724;2023-04-19T01:45:40;101342.41;;;11.30;65.13
11223;BME280;5668;52.012;8.724;2023-04-19T01:48:08;101345.34;;;11.23;64.80
11223;BME280;5668;52.012;8.724;2023-04-19T01:50:35;101338.47;;;11.22;63.68
11223;BME280;5668;52.012;8.724;2023-04-19T01:53:02;101336.22;;;11.16;63.13
11223;BME280;5668;52.012;8.724;2023-04-19T01:55:29;101334.72;;;11.12;63.27
11223;BME280;5668;52.012;8.724;2023-04-19T01:57:58;101337.63;;;11.06;63.60
11223;BME280;5668;52.012;8.724;2023-04-19T02:00:25;101330.84;;;11.04;63.02
11223;BME280;5668;52.012;8.724;2023-04-19T02:02:52;101325.56;;;11.05;63.11
11223;BME280;5668;52.012;8.724;2023-04-19T02:05:21;101327.41;;;11.03;62.93
11223;BME280;5668;52.012;8.724;2023-04-19T02:07:48;101326.94;;;10.97;62.09
11223;BME280;5668;52.012;8.724;2023-04-19T02:10:16;101327.06;;;10.94;60.32
11223;BME280;5668;52.012;8.724;2023-04-19T02:12:44;101321.03;;;10.93;60.48
11223;BME280;5668;52.012;8.724;2023-04-19T02:15:12;101329.00;;;10.90;59.48
11223;BME280;5668;52.012;8.724;2023-04-19T02:17:40;101318.78;;;10.87;59.00
11223;BME280;5668;52.012;8.724;2023-04-19T02:20:08;101318.78;;;10.87;58.62
11223;BME280;5668;52.012;8.724;2023-04-19T02:22:37;101329.00;;;10.90;58.70
11223;BME280;5668;52.012;8.724;2023-04-19T02:25:05;101322.16;;;10.89;58.73
11223;BME280;5668;52.012;8.724;2023-04-19T02:27:32;101328.91;;;10.92;58.49
11223;BME280;5668;52.012;8.724;2023-04-19T02:29:59;101325.47;;;10.91;58.77
11223;BME280;5668;52.012;8.724;2023-04-19T02:32:28;101329.75;;;10.92;58.82
11223;BME280;5668;52.012;8.724;2023-04-19T02:34:55;101326.16;;;10.95;59.21
11223;BME280;5668;52.012;8.724;2023-04-19T02:37:22;101328.00;;;10.93;59.04
11223;BME280;5668;52.012;8.724;2023-04-19T02:39:49;101329.94;;;10.89;59.41
11223;BME280;5668;52.012;8.724;2023-04-19T02:42:17;101333.47;;;10.88;59.21
11223;BME280;5668;52.012;8.724;2023-04-19T02:44:44;101330.94;;;10.86;59.57
11223;BME280;5668;52.012;8.724;2023-04-19T02:47:11;101335.88;;;10.91;59.68
11223;BME280;5668;52.012;8.724;2023-04-19T02:49:40;101334.31;;;10.89;60.80
11223;BME280;5668;52.012;8.724;2023-04-19T02:52:07;101336.97;;;10.87;61.54
11223;BME280;5668;52.012;8.724;2023-04-19T02:54:34;101337.06;;;10.85;62.47
11223;BME280;5668;52.012;8.724;2023-04-19T02:57:02;101330.19;;;10.84;63.00
11223;BME280;5668;52.012;8.724;2023-04-19T02:59:29;101333.88;;;10.80;62.76
11223;BME280;5668;52.012;8.724;2023-04-19T03:01:56;101331.34;;;10.79;62.41
11223;BME280;5668;52.012;8.724;2023-04-19T03:04:23;101329.84;;;10.75;61.78
11223;BME280;5668;52.012;8.724;2023-04-19T03:06:52;101331.84;;;10.70;62.49
11223;BME280;5668;52.012;8.724;2023-04-19T03:09:20;101332.19;;;10.64;62.72
11223;BME280;5668;52.012;8.724;2023-04-19T03:11:47;101341.75;;;10.63;62.71
11223;BME280;5668;52.012;8.724;2023-04-19T03:14:14;101341.09;;;10.60;62.32
11223;BME280;5668;52.012;8.724;2023-04-19T03:16:41;101343.91;;;10.55;61.47
11223;BME280;5668;52.012;8.724;2023-04-19T03:19:08;101334.69;;;10.50;60.81
11223;BME280;5668;52.012;8.724;2023-04-19T03:21:36;101341.91;;;10.44;60.31
11223;BME280;5668;52.012;8.724;2023-04-19T03:24:05;101332.56;;;10.40;59.95
11223;BME280;5668;52.012;8.724;2023-04-19T03:26:32;101338.84;;;10.36;58.91
11223;BME280;5668;52.012;8.724;2023-04-19T03:28:59;101345.13;;;10.32;58.95
11223;BME280;5668;52.012;8.724;2023-04-19T03:31:27;101342.78;;;10.28;58.64
11223;BME280;5668;52.012;8.724;2023-04-19T03:33:54;101338.75;;;10.22;58.58
11223;BME280;5668;52.012;8.724;2023-04-19T03:36:22;101346.78;;;10.16;57.79
11223;BME280;5668;52.012;8.724;2023-04-19T03:38:49;101341.78;;;10.13;57.34
11223;BME280;5668;52.012;8.724;2023-04-19T03:41:23;101346.34;;;10.08;57.40
11223;BME280;5668;52.012;8.724;2023-04-19T03:43:50;101337.50;;;9.95;57.01
11223;BME280;5668;52.012;8.724;2023-04-19T03:46:18;101337.44;;;9.79;54.77
11223;BME280;5668;52.012;8.724;2023-04-19T03:48:45;101339.66;;;9.69;54.21
11223;BME280;5668;52.012;8.724;2023-04-19T03:51:12;101330.66;;;9.59;53.85
11223;BME280;5668;52.012;8.724;2023-04-19T03:53:41;101342.25;;;9.52;53.38
11223;BME280;5668;52.012;8.724;2023-04-19T03:56:08;101337.13;;;9.51;53.90
11223;BME280;5668;52.012;8.724;2023-04-19T03:58:37;101344.06;;;9.50;54.77
11223;BME280;5668;52.012;8.724;2023-04-19T04:01:04;101341.72;;;9.46;54.27
11223;BME280;5668;52.012;8.724;2023-04-19T04:03:33;101344.50;;;9.41;54.38
11223;BME280;5668;52.012;8.724;2023-04-19T04:06:00;101350.69;;;9.39;54.88
11223;BME280;5668;52.012;8.724;2023-04-19T04:08:27;101344.81;;;9.35;54.73
11223;BME280;5668;52.012;8.724;2023-04-19T04:10:54;101341.31;;;9.36;55.26
11223;BME280;5668;52.012;8.724;2023-04-19T04:13:22;101336.25;;;9.33;55.09
11223;BME280;5668;52.012;8.724;2023-04-19T04:15:50;101345.03;;;9.30;55.74
11223;BME280;5668;52.012;8.724;2023-04-19T04:18:18;101350.59;;;9.23;55.13
11223;BME280;5668;52.012;8.724;2023-04-19T04:20:46;101340.34;;;9.20;55.78
11223;BME280;5668;52.012;8.724;2023-04-19T04:23:13;101348.44;;;9.14;56.07
11223;BME280;5668;52.012;8.724;2023-04-19T04:25:41;101346.75;;;9.13;56.34
11223;BME280;5668;52.012;8.724;2023-04-19T04:28:09;101346.06;;;9.09;56.16
11223;BME280;5668;52.012;8.724;2023-04-19T04:30:36;101350.00;;;8.99;56.09
11223;BME280;5668;52.012;8.724;2023-04-19T04:33:04;101361.34;;;8.97;56.07
11223;BME280;5668;52.012;8.724;2023-04-19T04:35:33;101354.06;;;8.86;56.61
11223;BME280;5668;52.012;8.724;2023-04-19T04:38:01;101362.03;;;8.81;56.79
11223;BME280;5668;52.012;8.724;2023-04-19T04:40:28;101364.00;;;8.76;55.90
11223;BME280;5668;52.012;8.724;2023-04-19T04:42:56;101359.94;;;8.71;56.71
11223;BME280;5668;52.012;8.724;2023-04-19T04:45:26;101359.28;;;8.66;56.86
11223;BME280;5668;52.012;8.724;2023-04-19T04:47:57;101365.66;;;8.59;56.59
11223;BME280;5668;52.012;8.724;2023-04-19T04:50:25;101360.97;;;8.48;56.55
11223;BME280;5668;52.012;8.724;2023-04-19T04:52:53;101362.78;;;8.46;56.14
11223;BME280;5668;52.012;8.724;2023-04-19T04:55:20;101364.59;;;8.44;57.02
11223;BME280;5668;52.012;8.724;2023-04-19T04:57:52;101366.50;;;8.40;56.34
11223;BME280;5668;52.012;8.724;2023-04-19T05:00:19;101372.75;;;8.35;55.80
11223;BME280;5668;52.012;8.724;2023-04-19T05:02:47;101370.94;;;8.37;56.22
11223;BME280;5668;52.012;8.724;2023-04-19T05:05:14;101370.16;;;8.35;57.32
11223;BME280;5668;52.012;8.724;2023-04-19T05:07:43;101368.34;;;8.37;56.62
11223;BME280;5668;52.012;8.724;2023-04-19T05:10:12;101373.47;;;8.38;57.13
11223;BME280;5668;52.012;8.724;2023-04-19T05:12:39;101369.84;;;8.42;57.46
11223;BME280;5668;52.012;8.724;2023-04-19T05:15:07;101375.72;;;8.46;58.08
11223;BME280;5668;52.012;8.724;2023-04-19T05:17:36;101374.81;;;8.47;58.62
11223;BME280;5668;52.012;8.724;2023-04-19T05:20:05;101379.09;;;8.48;58.53
11223;BME280;5668;52.012;8.724;2023-04-19T05:22:33;101377.41;;;8.47;57.98
11223;BME280;5668;52.012;8.724;2023-04-19T05:25:02;101373.78;;;8.51;58.42
11223;BME280;5668;52.012;8.724;2023-04-19T05:27:29;101375.34;;;8.55;58.74
11223;BME280;5668;52.012;8.724;2023-04-19T05:29:56;101377.03;;;8.56;58.98
11223;BME280;5668;52.012;8.724;2023-04-19T05:32:23;101371.84;;;8.56;58.42
11223;BME280;5668;52.012;8.724;2023-04-19T05:34:51;101375.34;;;8.55;59.02
11223;BME280;5668;52.012;8.724;2023-04-19T05:37:18;101366.78;;;8.53;57.96
11223;BME280;5668;52.012;8.724;2023-04-19T05:39:45;101378.69;;;8.57;59.05
11223;BME280;5668;52.012;8.724;2023-04-19T05:42:14;101374.44;;;8.56;59.00
11223;BME280;5668;52.012;8.724;2023-04-19T05:44:41;101377.03;;;8.56;59.41
11223;BME280;5668;52.012;8.724;2023-04-19T05:47:08;101366.66;;;8.56;58.67
11223;BME280;5668;52.012;8.724;2023-04-19T05:49:35;101365.09;;;8.52;58.33
11223;BME280;5668;52.012;8.724;2023-04-19T05:52:03;101361.59;;;8.53;58.68
11223;BME280;5668;52.012;8.724;2023-04-19T05:54:30;101371.13;;;8.52;59.54
11223;BME280;5668;52.012;8.724;2023-04-19T05:57:00;101364.19;;;8.53;58.57
11223;BME280;5668;52.012;8.724;2023-04-19T05:59:29;101356.28;;;8.56;59.23
11223;BME280;5668;52.012;8.724;2023-04-19T06:01:56;101358.94;;;8.54;59.63
11223;BME280;5668;52.012;8.724;2023-04-19T06:04:24;101356.41;;;8.53;60.65
11223;BME280;5668;52.012;8.724;2023-04-19T06:06:51;101366.72;;;8.54;60.77
11223;BME280;5668;52.012;8.724;2023-04-19T06:09:18;101366.72;;;8.54;60.91
11223;BME280;5668;52.012;8.724;2023-04-19T06:11:46;101363.97;;;8.58;60.36
11223;BME280;5668;52.012;8.724;2023-04-19T06:14:13;101359.63;;;8.58;59.93
11223;BME280;5668;52.012;8.724;2023-04-19T06:16:41;101363.13;;;8.57;60.98
11223;BME280;5668;52.012;8.724;2023-04-19T06:19:09;101364.69;;;8.61;60.48
11223;BME280;5668;52.012;8.724;2023-04-19T06:21:36;101361.75;;;8.69;60.80
11223;BME280;5668;52.012;8.724;2023-04-19T06:24:05;101361.47;;;8.75;59.98
11223;BME280;5668;52.012;8.724;2023-04-19T06:26:32;101364.78;;;8.78;61.26
11223;BME280;5668;52.012;8.724;2023-04-19T06:28:59;101357.69;;;8.82;60.57
11223;BME280;5668;52.012;8.724;2023-04-19T06:31:26;101359.16;;;8.87;60.89
11223;BME280;5668;52.012;8.724;2023-04-19T06:33:55;101357.28;;;8.91;61.54
11223;BME280;5668;52.012;8.724;2023-04-19T06:36:22;101369.28;;;8.93;61.07
11223;BME280;5668;52.012;8.724;2023-04-19T06:38:49;101368.97;;;9.00;61.36
11223;BME280;5668;52.012;8.724;2023-04-19T06:41:17;101376.75;;;9.00;61.40
11223;BME280;5668;52.012;8.724;2023-04-19T06:43:44;101373.09;;;9.04;60.19
11223;BME280;5668;52.012;8.724;2023-04-19T06:46:11;101371.28;;;9.06;59.89
11223;BME280;5668;52.012;8.724;2023-04-19T06:48:39;101369.31;;;9.11;60.04
11223;BME280;5668;52.012;8.724;2023-04-19T06:51:08;101377.84;;;9.13;59.13
11223;BME280;5668;52.012;8.724;2023-04-19T06:53:35;101375.03;;;9.17;59.43
11223;BME280;5668;52.012;8.724;2023-04-19T06:56:03;101369.66;;;9.22;59.77
11223;BME280;5668;52.012;8.724;2023-04-19T06:58:31;101374.69;;;9.25;59.83
11223;BME280;5668;52.012;8.724;2023-04-19T07:00:58;101368.75;;;9.23;58.59
11223;BME280;5668;52.012;8.724;2023-04-19T07:03:26;101365.78;;;9.30;58.98
11223;BME280;5668;52.012;8.724;2023-04-19T07:05:53;101368.03;;;9.38;59.12
11223;BME280;5668;52.012;8.724;2023-04-19T07:08:23;101375.44;;;9.46;60.08
11223;BME280;5668;52.012;8.724;2023-04-19T07:10:51;101376.94;;;9.50;60.08
11223;BME280;5668;52.012;8.724;2023-04-19T07:13:19;101374.16;;;9.54;60.95
11223;BME280;5668;52.012;8.724;2023-04-19T07:15:46;101379.09;;;9.59;59.96
11223;BME280;5668;52.012;8.724;2023-04-19T07:18:13;101367.03;;;9.58;60.18
11223;BME280;5668;52.012;8.724;2023-04-19T07:20:41;101373.84;;;9.60;58.66
11223;BME280;5668;52.012;8.724;2023-04-19T07:23:14;101370.34;;;9.61;58.26
11223;BME280;5668;52.012;8.724;2023-04-19T07:25:42;101363.16;;;9.66;58.04
11223;BME280;5668;52.012;8.724;2023-04-19T07:28:10;101362.78;;;9.74;58.08
11223;BME280;5668;52.012;8.724;2023-04-19T07:30:37;101355.84;;;9.75;58.01
11223;BME280;5668;52.012;8.724;2023-04-19T07:33:04;101346.97;;;9.79;57.88
11223;BME280;5668;52.012;8.724;2023-04-19T07:35:33;101342.56;;;9.81;58.00
11223;BME280;5668;52.012;8.724;2023-04-19T07:38:01;101346.69;;;9.85;57.93
11223;BME280;5668;52.012;8.724;2023-04-19T07:40:28;101337.97;;;9.86;57.29
11223;BME280;5668;52.012;8.724;2023-04-19T07:42:57;101347.22;;;9.91;57.20
11223;BME280;5668;52.012;8.724;2023-04-19T07:45:24;101346.19;;;9.94;56.62
11223;BME280;5668;52.012;8.724;2023-04-19T07:47:51;101348.59;;;9.98;57.82
11223;BME280;5668;52.012;8.724;2023-04-19T07:50:19;101343.16;;;10.03;57.89
11223;BME280;5668;52.012;8.724;2023-04-19T07:52:47;101348.88;;;10.09;58.20
11223;BME280;5668;52.012;8.724;2023-04-19T07:55:14;101344.28;;;10.15;57.87
11223;BME280;5668;52.012;8.724;2023-04-19T07:57:42;101348.50;;;10.17;56.55
11223;BME280;5668;52.012;8.724;2023-04-19T08:00:15;101347.28;;;10.24;57.06
11223;BME280;5668;52.012;8.724;2023-04-19T08:02:43;101342.78;;;10.28;57.48
11223;BME280;5668;52.012;8.724;2023-04-19T08:05:11;101342.50;;;10.32;56.51
11223;BME280;5668;52.012;8.724;2023-04-19T08:07:38;101338.69;;;10.39;56.73
11223;BME280;5668;52.012;8.724;2023-04-19T08:10:07;101324.63;;;10.43;56.80
11223;BME280;5668;52.012;8.724;2023-04-19T08:12:35;101328.66;;;10.49;57.64
11223;BME280;5668;52.012;8.724;2023-04-19T08:15:03;101323.94;;;10.56;57.41
11223;BME280;5668;52.012;8.724;2023-04-19T08:17:32;101327.25;;;10.59;57.24
11223;BME280;5668;52.012;8.724;2023-04-19T08:20:03;101321.78;;;10.64;57.88
11223;BME280;5668;52.012;8.724;2023-04-19T08:22:32;101321.44;;;10.70;57.96
11223;BME280;5668;52.012;8.724;2023-04-19T08:24:59;101319.19;;;10.79;58.23
11223;BME280;5668;52.012;8.724;2023-04-19T08:27:26;101323.13;;;10.86;57.88
11223;BME280;5668;52.012;8.724;2023-04-19T08:29:53;101326.31;;;10.92;57.40
11223;BME280;5668;52.012;8.724;2023-04-19T08:32:21;101315.75;;;10.95;56.59
11223;BME280;5668;52.012;8.724;2023-04-19T08:34:49;101315.91;;;11.07;56.30
11223;BME280;5668;52.012;8.724;2023-04-19T08:37:16;101307.03;;;11.11;52.91
11223;BME280;5668;52.012;8.724;2023-04-19T08:39:44;101303.16;;;11.18;52.27
11223;BME280;5668;52.012;8.724;2023-04-19T08:42:11;101300.13;;;11.26;51.58
11223;BME280;5668;52.012;8.724;2023-04-19T08:44:39;101303.00;;;11.36;52.95
11223;BME280;5668;52.012;8.724;2023-04-19T08:47:07;101302.56;;;11.43;52.79
11223;BME280;5668;52.012;8.724;2023-04-19T08:49:35;101292.31;;;11.56;52.70
11223;BME280;5668;52.012;8.724;2023-04-19T08:52:06;101291.59;;;11.68;53.15
11223;BME280;5668;52.012;8.724;2023-04-19T08:54:35;101284.44;;;11.72;53.63
11223;BME280;5668;52.012;8.724;2023-04-19T08:57:02;101289.88;;;11.83;53.41
11223;BME280;5668;52.012;8.724;2023-04-19T08:59:29;101282.53;;;11.89;51.42
11223;BME280;5668;52.012;8.724;2023-04-19T09:02:00;101270.63;;;11.99;49.92
11223;BME280;5668;52.012;8.724;2023-04-19T09:04:27;101270.94;;;12.09;49.26
11223;BME280;5668;52.012;8.724;2023-04-19T09:06:55;101266.34;;;12.13;47.00
11223;BME280;5668;52.012;8.724;2023-04-19T09:09:24;101272.03;;;12.19;46.72
11223;BME280;5668;52.012;8.724;2023-04-19T09:11:52;101270.63;;;12.28;45.91
11223;BME280;5668;52.012;8.724;2023-04-19T09:14:20;101258.13;;;12.33;45.33
11223;BME280;5668;52.012;8.724;2023-04-19T09:16:48;101268.38;;;12.36;44.53
11223;BME280;5668;52.012;8.724;2023-04-19T09:19:17;101272.84;;;12.34;43.60
11223;BME280;5668;52.012;8.724;2023-04-19T09:21:44;101265.78;;;12.36;41.97
11223;BME280;5668;52.012;8.724;2023-04-19T09:24:12;101274.25;;;12.39;42.66
11223;BME280;5668;52.012;8.724;2023-04-19T09:26:53;101273.13;;;12.44;42.98
11223;BME280;5668;52.012;8.724;2023-04-19T09:29:22;101263.34;;;12.47;43.23
11223;BME280;5668;52.012;8.724;2023-04-19T09:31:57;101264.66;;;12.54;42.51
11223;BME280;5668;52.012;8.724;2023-04-19T09:34:24;101264.88;;;12.64;43.20
11223;BME280;5668;52.012;8.724;2023-04-19T09:36:54;101260.16;;;12.70;42.57
11223;BME280;5668;52.012;8.724;2023-04-19T09:39:29;101255.47;;;12.75;42.20
11223;BME280;5668;52.012;8.724;2023-04-19T09:41:58;101261.22;;;12.80;41.52
11223;BME280;5668;52.012;8.724;2023-04-19T09:44:25;101247.78;;;12.87;41.92
11223;BME280;5668;52.012;8.724;2023-04-19T09:46:53;101247.41;;;12.93;41.84
11223;BME280;5668;52.012;8.724;2023-04-19T09:49:21;101249.38;;;13.02;40.42
11223;BME280;5668;52.012;8.724;2023-04-19T09:51:51;101251.63;;;13.08;39.42
11223;BME280;5668;52.012;8.724;2023-04-19T09:54:19;101257.31;;;13.14;38.83
11223;BME280;5668;52.012;8.724;2023-04-19T09:56:47;101247.31;;;13.21;39.18
11223;BME280;5668;52.012;8.724;2023-04-19T09:59:16;101232.91;;;13.28;38.85
11223;BME280;5668;52.012;8.724;2023-04-19T10:01:45;101230.63;;;13.36;39.41
11223;BME280;5668;52.012;8.724;2023-04-19T10:04:14;101230.22;;;13.42;39.86
11223;BME280;5668;52.012;8.724;2023-04-19T10:06:47;101221.03;;;13.49;39.06
11223;BME280;5668;52.012;8.724;2023-04-19T10:09:16;101211.09;;;13.54;39.98
11223;BME280;5668;52.012;8.724;2023-04-19T10:11:47;101214.13;;;13.61;39.61
11223;BME280;5668;52.012;8.724;2023-04-19T10:14:20;101215.59;;;13.65;39.88
11223;BME280;5668;52.012;8.724;2023-04-19T10:16:48;101201.59;;;13.66;37.74
11223;BME280;5668;52.012;8.724;2023-04-19T10:19:18;101210.06;;;13.70;35.96
11223;BME280;5668;52.012;8.724;2023-04-19T10:21:47;101198.47;;;13.74;35.31
11223;BME280;5668;52.012;8.724;2023-04-19T10:24:16;101200.56;;;13.81;37.65
11223;BME280;5668;52.012;8.724;2023-04-19T10:27:04;101194.78;;;13.89;37.49
11223;BME280;5668;52.012;8.724;2023-04-19T10:29:55;101184.66;;;13.97;37.68
11223;BME280;5668;52.012;8.724;2023-04-19T10:32:22;101192.06;;;14.03;38.97
11223;BME280;5668;52.012;8.724;2023-04-19T10:34:51;101180.63;;;14.17;39.58
11223;BME280;5668;52.012;8.724;2023-04-19T10:37:22;101184.28;;;14.14;36.84
11223;BME280;5668;52.012;8.724;2023-04-19T10:39:51;101186.13;;;14.25;37.51
11223;BME280;5668;52.012;8.724;2023-04-19T10:42:18;101174.94;;;14.36;37.04
11223;BME280;5668;52.012;8.724;2023-04-19T10:47:51;101164.19;;;14.51;37.57
11223;BME280;5668;52.012;8.724;2023-04-19T10:50:19;101153.63;;;14.53;37.26
11223;BME280;5668;52.012;8.724;2023-04-19T10:52:49;101158.66;;;14.56;36.90
11223;BME280;5668;52.012;8.724;2023-04-19T10:55:18;101160.81;;;14.62;35.75
11223;BME280;5668;52.012;8.724;2023-04-19T10:58:02;101150.53;;;14.71;36.63
11223;BME280;5668;52.012;8.724;2023-04-19T11:00:29;101150.91;;;14.78;36.26
11223;BME280;5668;52.012;8.724;2023-04-19T11:02:59;101148.88;;;14.82;35.17
11223;BME280;5668;52.012;8.724;2023-04-19T11:05:26;101140.19;;;14.81;36.05
11223;BME280;5668;52.012;8.724;2023-04-19T11:07:53;101146.97;;;14.84;34.95
11223;BME280;5668;52.012;8.724;2023-04-19T11:10:29;101132.84;;;14.86;34.55
11223;BME280;5668;52.012;8.724;2023-04-19T11:12:57;101125.72;;;14.88;34.93
11223;BME280;5668;52.012;8.724;2023-04-19T11:15:24;101133.09;;;14.94;34.77
11223;BME280;5668;52.012;8.724;2023-04-19T11:17:52;101129.09;;;15.01;34.41
11223;BME280;5668;52.012;8.724;2023-04-19T11:20:22;101131.44;;;15.04;34.21
11223;BME280;5668;52.012;8.724;2023-04-19T11:22:50;101134.06;;;15.04;33.44
11223;BME280;5668;52.012;8.724;2023-04-19T11:25:19;101120.75;;;15.07;34.45
11223;BME280;5668;52.012;8.724;2023-04-19T11:27:48;101117.44;;;15.17;34.57
11223;BME280;5668;52.012;8.724;2023-04-19T11:30:17;101123.06;;;15.23;34.77
11223;BME280;5668;52.012;8.724;2023-04-19T11:32:48;101118.06;;;15.31;35.04
11223;BME280;5668;52.012;8.724;2023-04-19T11:35:18;101111.41;;;15.38;35.36
11223;BME280;5668;52.012;8.724;2023-04-19T11:37:47;101097.81;;;15.44;36.61
11223;BME280;5668;52.012;8.724;2023-04-19T11:40:16;101090.13;;;15.54;37.00
11223;BME280;5668;52.012;8.724;2023-04-19T11:42:44;101093.66;;;15.64;36.24
11223;BME280;5668;52.012;8.724;2023-04-19T11:45:22;101086.03;;;15.72;35.93
11223;BME280;5668;52.012;8.724;2023-04-19T11:47:50;101083.66;;;15.80;35.26
11223;BME280;5668;52.012;8.724;2023-04-19T11:50:31;101078.91;;;15.85;35.95
11223;BME280;5668;52.012;8.724;2023-04-19T11:53:08;101070.88;;;15.87;36.27
11223;BME280;5668;52.012;8.724;2023-04-19T11:55:35;101067.19;;;15.90;36.30
11223;BME280;5668;52.012;8.724;2023-04-19T11:58:05;101060.78;;;15.94;35.97
11223;BME280;5668;52.012;8.724;2023-04-19T12:00:34;101056.81;;;15.99;35.88
11223;BME280;5668;52.012;8.724;2023-04-19T12:03:03;101057.88;;;16.08;35.62
11223;BME280;5668;52.012;8.724;2023-04-19T12:05:30;101059.38;;;16.10;35.00
11223;BME280;5668;52.012;8.724;2023-04-19T12:08:03;101052.56;;;16.19;34.77
11223;BME280;5668;52.012;8.724;2023-04-19T12:10:30;101050.38;;;16.24;35.35
11223;BME280;5668;52.012;8.724;2023-04-19T12:12:58;101047.28;;;16.30;35.66
11223;BME280;5668;52.012;8.724;2023-04-19T12:15:40;101044.41;;;16.33;35.58
11223;BME280;5668;52.012;8.724;2023-04-19T12:18:08;101042.03;;;16.30;34.84
11223;BME280;5668;52.012;8.724;2023-04-19T12:20:36;101030.59;;;16.31;34.77
11223;BME280;5668;52.012;8.724;2023-04-19T12:23:05;101039.75;;;16.37;34.52
11223;BME280;5668;52.012;8.724;2023-04-19T12:25:36;101026.22;;;16.41;34.97
11223;BME280;5668;52.012;8.724;2023-04-19T12:28:04;101011.41;;;16.51;33.77
11223;BME280;5668;52.012;8.724;2023-04-19T12:30:31;101022.09;;;16.59;33.13
11223;BME280;5668;52.012;8.724;2023-04-19T12:33:00;101000.19;;;16.60;32.86
11223;BME280;5668;52.012;8.724;2023-04-19T12:35:28;101010.06;;;16.57;33.26
11223;BME280;5668;52.012;8.724;2023-04-19T12:37:56;100996.31;;;16.64;33.69
11223;BME280;5668;52.012;8.724;2023-04-19T12:40:25;101004.63;;;16.70;34.06
11223;BME280;5668;52.012;8.724;2023-04-19T12:42:53;100999.38;;;16.70;32.06
11223;BME280;5668;52.012;8.724;2023-04-19T12:45:21;100994.53;;;16.65;31.01
11223;BME280;5668;52.012;8.724;2023-04-19T12:47:48;100988.69;;;16.61;30.81
11223;BME280;5668;52.012;8.724;2023-04-19T12:50:16;101005.63;;;16.57;31.80
11223;BME280;5668;52.012;8.724;2023-04-19T12:52:44;101000.03;;;16.62;32.09
11223;BME280;5668;52.012;8.724;2023-04-19T12:55:11;100992.16;;;16.62;31.94
11223;BME280;5668;52.012;8.724;2023-04-19T12:57:41;100990.59;;;16.59;31.56
11223;BME280;5668;52.012;8.724;2023-04-19T13:00:09;100977.81;;;16.66;31.75
11223;BME280;5668;52.012;8.724;2023-04-19T13:02:37;100972.88;;;16.73;31.72
11223;BME280;5668;52.012;8.724;2023-04-19T13:05:05;100985.06;;;16.74;30.81
11223;BME280;5668;52.012;8.724;2023-04-19T13:07:33;100980.03;;;16.71;30.96
11223;BME280;5668;52.012;8.724;2023-04-19T13:10:00;100972.16;;;16.71;30.55
11223;BME280;5668;52.012;8.724;2023-04-19T13:12:28;100972.16;;;16.71;31.82